CDT,Max TemperatureF,Mean TemperatureF,Min TemperatureF,Max Dew PointF,MeanDew PointF,Min DewpointF,Max Humidity, Mean Humidity, Min Humidity, Max Sea Level PressureIn, Mean Sea Level PressureIn, Min Sea Level PressureIn, Max VisibilityMiles, Mean VisibilityMiles, Min VisibilityMiles, Max Wind SpeedMPH, Mean Wind SpeedMPH, Max Gust SpeedMPH,PrecipitationIn, CloudCover, Events, WindDirDegrees
2012-9-1,93,80,66,64,62,59,83,57,32,30.06,30.01,29.97,10,10,10,15,8,22,0.00,0,,355
2012-9-2,100,83,66,66,62,57,88,53,25,30.00,29.95,29.88,10,10,8,13,7,16,0.00,0,,144
2012-9-3,105,87,69,64,61,54,78,46,19,29.93,29.89,29.83,10,10,7,17,9,24,0.00,1,,167
2012-9-4,96,84,69,70,64,57,83,56,30,29.97,29.90,29.82,10,10,5,28,7,88,0.96,1,Thunderstorm,209
2012-9-5,91,78,66,66,63,57,88,63,43,29.96,29.90,29.83,10,10,8,23,9,31,0.23,1,Thunderstorm,257
2012-9-6,93,78,64,64,60,55,73,53,34,30.01,29.94,29.82,10,10,8,23,7,33,0.00,0,,138
2012-9-7,82,70,57,61,54,48,82,59,37,30.16,29.97,29.84,10,10,4,31,14,41,0.61,2,Thunderstorm,351
2012-9-8,78,64,50,48,46,43,82,55,28,30.25,30.18,30.10,10,10,10,13,7,20,0.00,0,,317
2012-9-9,78,66,53,46,44,39,72,46,24,30.24,30.16,30.10,10,10,10,14,7,17,0.00,0,,24
2012-9-10,87,69,51,54,48,45,77,51,24,30.17,30.10,29.99,10,10,8,17,9,22,0.00,0,,155
2012-9-11,91,74,57,52,47,45,72,40,22,30.03,29.98,29.91,10,10,10,28,13,36,0.00,0,,170
2012-9-12,93,75,57,59,53,48,82,44,30,30.12,29.98,29.93,10,10,10,23,17,36,0.00,2,,174
2012-9-13,57,55,53,52,49,48,88,81,77,30.39,30.29,30.13,10,10,8,24,18,31,0.29,8,,26
2012-9-14,71,61,51,48,45,37,82,61,31,30.40,30.35,30.29,10,10,10,17,10,24,0.02,4,,46
2012-9-15,64,60,55,57,54,45,88,81,55,30.30,30.21,30.13,10,7,2,8,3,,0.01,8,,76
2012-9-16,75,68,60,59,57,55,88,73,53,30.13,30.05,29.97,10,9,4,12,3,,0.00,5,,181
2012-9-17,75,64,53,61,54,45,88,74,53,30.09,29.96,29.92,10,8,0,22,9,31,0.00,2,,328
2012-9-18,73,60,46,46,43,39,87,58,33,30.17,30.09,30.02,10,10,10,15,7,20,0.00,0,,266
2012-9-19,87,71,55,54,48,43,63,47,31,30.03,29.97,29.89,10,10,10,21,13,28,0.00,0,,197
2012-9-20,80,68,57,43,38,34,48,34,20,30.08,30.03,29.98,10,10,7,18,11,23,0.00,0,,78
2012-9-21,84,70,55,46,41,37,59,38,20,30.02,29.96,29.91,10,10,9,18,9,28,0.00,0,,345
2012-9-22,71,62,53,39,33,25,58,35,21,30.28,30.18,30.01,10,10,10,17,8,26,0.00,0,,35
2012-9-23,71,58,46,37,31,25,53,37,23,30.32,30.26,30.17,10,10,9,15,7,20,0.00,1,Thunderstorm,108
2012-9-24,86,68,50,55,47,37,67,46,31,30.17,29.96,29.82,10,10,10,18,11,26,0.00,0,,171
2012-9-25,82,70,59,57,53,48,73,51,37,29.89,29.84,29.79,10,10,8,15,7,20,0.01,0,Thunderstorm,279
2012-9-26,73,66,60,63,58,54,88,75,64,30.14,30.03,29.86,10,10,7,29,11,37,0.23,6,Thunderstorm,75
2012-9-27,69,64,60,61,58,55,88,79,68,30.19,30.14,30.10,10,9,5,8,4,,0.00,6,,67
2012-9-28,73,66,60,61,59,55,94,83,61,30.19,30.14,30.11,10,4,0,12,4,,0.91,6,,79
2012-9-29,69,62,55,55,51,45,88,67,43,30.16,30.12,30.06,10,8,1,9,5,16,0.00,1,,73
2012-9-30,73,63,53,48,47,45,77,57,36,30.07,30.00,29.94,10,10,9,9,3,,0.00,0,,56